Aviation Digital Data Service (ADDS)

Output produced by METARs form (0222 UTC 16 January 2019)
found at http://www.aviationweather.gov/metar/data/
 
KYIP 152337Z 1600/1624 22013KT 6SM HZ OVC013 
     FM160200 22013KT 4SM BR OVC007 
     FM160600 24010KT 2SM -FZDZ BR OVC004 
     FM161100 28010KT 4SM BR OVC007 
     FM161400 30013KT P6SM BKN020 OVC035 
     FM161700 36013KT P6SM BKN035 
     FM162000 03007KT P6SM SCT035 BKN200
       
KYKM 152320Z 1600/1624 35006KT P6SM OVC017 
     FM160300 VRB04KT P6SM OVC015 
     FM161800 35005KT P6SM VCSH OVC015
       
KYNG 152335Z 1600/1624 20010KT 3SM BR OVC010 
     TEMPO 1600/1604 OVC009 
     FM160400 24012KT 2SM BR OVC007 
     FM161400 26012KT P6SM OVC008 
     FM161800 29010KT P6SM OVC010 
     FM162200 33008KT P6SM BKN020